Sodus Point, NY (14555)

7:15 PM EST on January 29, 2015 (GMT -0500)
Lyons | Change Station
CLOSE
Current Station
Personal Weather Station
Location: Lyons, NY
Elevation: 503 ft
Nearby Weather Stations
Active Advisory: Winter Weather Advisory

Elev 503 ft 43.14 °N, 77.00 °W | Updated 8 seconds ago

Snow
Snow
28.3 °F
Feels Like 24 °F
N
3.5
Wind Variable Wind from South
Gusts 3.5 mph

Today
High -- | Low -- °F
--% Chance of Precip.
Yesterday
High -- | Low -- °F
Precip. -- in
7:26 AM 5:15 PM
Waxing Gibbous, 78% visible
Pressure 29.85 in
Visibility 1.5 miles
Clouds Overcast 1500 ft
Windchill 24 °F
Dew Point 26 °F
Humidity 91%
Rainfall 0.00 in
Snow Depth Not available.
UV 0 out of 12
Pollen .10 out of 12
Air Quality Not available.
Flu Activity Not available.
METAR KFZY 292354Z AUTO 16005KT 1 1/2SM -SN BR OVC015 M02/M04 A2983 RMK AO2 SLP108 P0001 60001 T10171039 10011 21033 50001

More Conditions Fewer Conditions

Pressure 29.85 in
Visibility 1.5 miles
Clouds Overcast 1500 ft
Windchill 24 °F
Dew Point 26 °F
Humidity 91%
Rainfall 0.00 in
Snow Depth Not available.
UV 0 out of 12
Pollen .10 out of 12
Air Quality Not available.
Flu Activity Not available.
METAR KFZY 292354Z AUTO 16005KT 1 1/2SM -SN BR OVC015 M02/M04 A2983 RMK AO2 SLP108 P0001 60001 T10171039 10011 21033 50001

More Conditions Fewer Conditions

10-Day Weather Forecast

Almanac

Astronomy

Jan. 29, 2015 Rise Set
Actual Time
Civil Twilight
Nautical Twilight
Astronomical Twilight
Moon
Length of Visible Light
Length of Day
Tomorrow will be .
, % of the Moon is Illuminated

Today's Extremes

State Highs State Lows

Community

WunderPhotos

Upload Photos

1,791,645 photos uploaded!

WunderBlogs® & News

Nearby

Air Quality

  Air Quality AQ Index Pollutant
Not available.

Snow Depth

Station Depth Elevation

Earthquake Activity

City Distance Mag. Time & Date
Minimum magnitude displayed is 2.5.

Coastal Water Temperatures

Place Temperature

Nearby Weather Stations